Main page
METAR-TAF:

METAR-TAF

Airports :

Chuuk International Airport

Weno, Micronesia

latitude: 07-28N, longitude: 151-51E, elevation: 3 m

Current weather observation

The report was made 35 minutes ago, at 22:50 UTC
Wind 5 kt from variable directions
Temperature 27°C
Humidity 89%
Pressure 1010 hPa
Visibility: 24.1 km
Scattered clouds at a height of 1400 ft, Cumulonimbus.
Broken clouds at a height of 12000 ft
Overcast at a height of 28000 ft

METAR: PTKK 212250Z VRB05KT 15SM SCT014CB BKN120 OVC280 27/25 A2982 RMK CB ALQDS SLP100 T02720253

Time: 09:25 (23:25 UTC)

Forecast

The report was made 5 hours and 58 minutes ago, at 17:27 UTC
Forecast valid from 21 at 18 UTC to 22 at 18 UTC
Wind 11 kt from the East/Northeast
Visibility: 10 km
Few clouds at a height of 1400 ft
Scattered clouds at a height of 6000 ft
Broken clouds at a height of 14000 ft
showers in vicinity

TAF: PTKK 211727Z 2118/2218 06011KT P6SM VCSH FEW014 SCT060 BKN140

Weather observations and forecasts of more than 4000 airports (METAR and TAF reports).

The available stations are represented by yellow and red dots on the map.

Hover mouse over dot to see the name of the station.

Then click to see weather observations and forecasts.

To change the map : click on the green buttons with a black cross to zoom in, on the green button with a dash to zoom out, or on the green arrows for adjacent maps.


METAR-TAF: